createdAt,value
2017-12-15T00:01:03.303Z,98405
2017-12-15T00:03:31.250Z,98420
2017-12-15T00:05:59.214Z,98428
2017-12-15T00:08:27.177Z,98423
2017-12-15T00:10:55.131Z,98432
2017-12-15T00:13:23.838Z,98429
2017-12-15T00:15:51.811Z,98430
2017-12-15T00:18:19.739Z,98435
2017-12-15T00:20:48.416Z,98441
2017-12-15T00:23:17.432Z,98435
2017-12-15T00:25:45.379Z,98432
2017-12-15T00:28:13.480Z,98444
2017-12-15T00:30:41.443Z,98437
2017-12-15T00:33:09.444Z,98434
2017-12-15T00:35:37.371Z,98434
2017-12-15T00:38:06.182Z,98430
2017-12-15T00:40:34.153Z,98441
2017-12-15T00:43:02.052Z,98430
2017-12-15T00:45:30.005Z,98430
2017-12-15T00:47:58.271Z,98445
2017-12-15T00:50:26.216Z,98427
2017-12-15T00:52:54.179Z,98425
2017-12-15T00:55:22.918Z,98424
2017-12-15T00:57:50.840Z,98429
2017-12-15T01:00:18.772Z,98434
2017-12-15T01:02:46.708Z,98428
2017-12-15T01:05:14.689Z,98435
2017-12-15T01:07:42.671Z,98436
2017-12-15T01:10:11.204Z,98412
2017-12-15T01:12:39.265Z,98434
2017-12-15T01:15:07.203Z,98428
2017-12-15T01:17:35.115Z,98435
2017-12-15T01:20:03.856Z,98425
2017-12-15T01:22:31.780Z,98421
2017-12-15T01:24:59.684Z,98423
2017-12-15T01:27:28.436Z,98422
2017-12-15T01:29:57.124Z,98431
2017-12-15T01:32:25.070Z,98424
2017-12-15T01:34:53.775Z,98433
2017-12-15T01:37:21.712Z,98441
2017-12-15T01:39:49.623Z,98440
2017-12-15T01:42:17.607Z,98439
2017-12-15T01:44:50.808Z,98442
2017-12-15T01:47:18.749Z,98437
2017-12-15T01:49:46.993Z,98442
2017-12-15T01:52:14.932Z,98444
2017-12-15T01:54:42.928Z,98444
2017-12-15T01:57:12.339Z,98449
2017-12-15T01:59:41.047Z,98442
2017-12-15T02:02:08.969Z,98441
2017-12-15T02:04:37.641Z,98445
2017-12-15T02:07:05.584Z,98454
2017-12-15T02:09:33.923Z,98457
2017-12-15T02:12:01.929Z,98463
2017-12-15T02:14:29.872Z,98459
2017-12-15T02:16:57.780Z,98454
2017-12-15T02:19:25.741Z,98455
2017-12-15T02:21:53.685Z,98466
2017-12-15T02:24:21.612Z,98464
2017-12-15T02:26:49.520Z,98472
2017-12-15T02:29:18.178Z,98473
2017-12-15T02:31:46.088Z,98478
2017-12-15T02:34:14.377Z,98465
2017-12-15T02:36:42.298Z,98463
2017-12-15T02:39:10.255Z,98469
2017-12-15T02:41:38.223Z,98446
2017-12-15T02:44:07.631Z,98473
2017-12-15T02:46:35.577Z,98470
2017-12-15T02:49:03.542Z,98477
2017-12-15T02:51:31.458Z,98474
2017-12-15T02:54:00.149Z,98478
2017-12-15T02:56:29.188Z,98484
2017-12-15T02:58:57.158Z,98477
2017-12-15T03:01:25.368Z,98490
2017-12-15T03:03:53.320Z,98474
2017-12-15T03:06:21.264Z,98491
2017-12-15T03:08:49.190Z,98490
2017-12-15T03:11:17.866Z,98496
2017-12-15T03:13:45.824Z,98489
2017-12-15T03:16:14.488Z,98497
2017-12-15T03:18:42.415Z,98508
2017-12-15T03:21:10.334Z,98501
2017-12-15T03:23:38.516Z,98500
2017-12-15T03:26:07.204Z,98493
2017-12-15T03:28:35.112Z,98508
2017-12-15T03:31:03.448Z,98499
2017-12-15T03:33:31.408Z,98504
2017-12-15T03:35:59.339Z,98492
2017-12-15T03:38:27.255Z,98500
2017-12-15T03:40:55.403Z,98503
2017-12-15T03:43:23.351Z,98503
2017-12-15T03:45:51.671Z,98499
2017-12-15T03:48:19.561Z,98510
2017-12-15T03:50:48.298Z,98502
2017-12-15T03:53:16.240Z,98504
2017-12-15T03:55:44.164Z,98511
2017-12-15T03:58:12.307Z,98518
2017-12-15T04:00:40.232Z,98525
2017-12-15T04:03:08.157Z,98519
2017-12-15T04:05:36.472Z,98523
2017-12-15T04:08:05.134Z,98529
2017-12-15T04:10:33.039Z,98523
2017-12-15T04:13:01.719Z,98530
2017-12-15T04:15:30.620Z,98521
2017-12-15T04:17:58.560Z,98527
2017-12-15T04:20:26.504Z,98522
2017-12-15T04:22:54.560Z,98522
2017-12-15T04:25:22.469Z,98527
2017-12-15T04:27:50.483Z,98530
2017-12-15T04:30:18.484Z,98526
2017-12-15T04:32:46.893Z,98535
2017-12-15T04:35:14.792Z,98536
2017-12-15T04:37:42.745Z,98535
2017-12-15T04:40:10.663Z,98530
2017-12-15T04:42:38.644Z,98539
2017-12-15T04:45:06.611Z,98539
2017-12-15T04:47:34.632Z,98542
2017-12-15T04:50:02.580Z,98536
2017-12-15T04:52:30.574Z,98542
2017-12-15T04:54:58.496Z,98545
2017-12-15T04:57:26.708Z,98541
2017-12-15T04:59:54.627Z,98549
2017-12-15T05:02:22.560Z,98552
2017-12-15T05:04:50.480Z,98560
2017-12-15T05:07:18.407Z,98560
2017-12-15T05:09:46.347Z,98537
2017-12-15T05:12:15.024Z,98575
2017-12-15T05:14:43.695Z,98571
2017-12-15T05:17:12.015Z,98565
2017-12-15T05:19:39.915Z,98571
2017-12-15T05:22:07.825Z,98579
2017-12-15T05:24:35.743Z,98573
2017-12-15T05:27:03.664Z,98576
2017-12-15T05:29:32.311Z,98572
2017-12-15T05:32:00.336Z,98590
2017-12-15T05:34:28.264Z,98585
2017-12-15T05:36:56.311Z,98598
2017-12-15T05:39:24.664Z,98605
2017-12-15T05:41:52.610Z,98603
2017-12-15T05:44:20.552Z,98610
2017-12-15T05:46:48.531Z,98615
2017-12-15T05:49:17.172Z,98618
2017-12-15T05:51:45.135Z,98618
2017-12-15T05:54:13.044Z,98626
2017-12-15T05:56:40.976Z,98633
2017-12-15T05:59:09.341Z,98633
2017-12-15T06:01:37.295Z,98643
2017-12-15T06:04:05.978Z,98636
2017-12-15T06:06:34.623Z,98634
2017-12-15T06:09:02.703Z,98634
2017-12-15T06:11:30.663Z,98640
2017-12-15T06:13:58.588Z,98647
2017-12-15T06:16:26.822Z,98648
2017-12-15T06:18:54.747Z,98650
2017-12-15T06:21:22.684Z,98658
2017-12-15T06:23:51.332Z,98662
2017-12-15T06:26:19.237Z,98665
2017-12-15T06:28:48.091Z,98660
2017-12-15T06:31:16.100Z,98669
2017-12-15T06:33:44.083Z,98671
2017-12-15T06:36:12.333Z,98672
2017-12-15T06:38:40.241Z,98669
2017-12-15T06:41:08.193Z,98664
2017-12-15T06:43:36.632Z,98684
2017-12-15T06:46:04.743Z,98682
2017-12-15T06:48:33.399Z,98686
2017-12-15T06:51:01.311Z,98684
2017-12-15T06:53:29.204Z,98682
2017-12-15T06:55:57.184Z,98679
2017-12-15T06:58:25.112Z,98688
2017-12-15T07:00:53.040Z,98696
2017-12-15T07:03:20.980Z,98704
2017-12-15T07:05:48.895Z,98686
2017-12-15T07:08:17.555Z,98700
2017-12-15T07:10:45.856Z,98700
2017-12-15T07:13:14.510Z,98702
2017-12-15T07:15:42.442Z,98696
2017-12-15T07:18:10.364Z,98703
2017-12-15T07:20:38.294Z,98706
2017-12-15T07:23:06.212Z,98714
2017-12-15T07:25:34.876Z,98724
2017-12-15T07:28:02.808Z,98727
2017-12-15T07:30:30.741Z,98723
2017-12-15T07:32:59.187Z,98725
2017-12-15T07:35:27.100Z,98725
2017-12-15T07:37:55.008Z,98722
2017-12-15T07:40:22.964Z,98722
2017-12-15T07:42:50.919Z,98715
2017-12-15T07:45:18.895Z,98716
2017-12-15T07:47:46.880Z,98722
2017-12-15T07:50:15.615Z,98726
2017-12-15T07:52:43.523Z,98726
2017-12-15T07:55:11.465Z,98722
2017-12-15T07:57:39.708Z,98734
2017-12-15T08:00:07.679Z,98733
2017-12-15T08:02:35.592Z,98738
2017-12-15T08:05:04.279Z,98740
2017-12-15T08:07:32.250Z,98744
2017-12-15T08:10:00.290Z,98741
2017-12-15T08:12:28.235Z,98741
2017-12-15T08:14:56.167Z,98754
2017-12-15T08:17:24.104Z,98750
2017-12-15T08:19:52.062Z,98751
2017-12-15T08:22:20.012Z,98764
2017-12-15T08:24:47.941Z,98741
2017-12-15T08:27:15.904Z,98768
2017-12-15T08:29:43.867Z,98776
2017-12-15T08:32:11.808Z,98777
2017-12-15T08:34:39.735Z,98783
2017-12-15T08:37:07.623Z,98787
2017-12-15T08:39:35.539Z,98793
2017-12-15T08:42:03.474Z,98794
2017-12-15T08:44:31.829Z,98796
2017-12-15T08:46:59.761Z,98805
2017-12-15T08:49:28.428Z,98806
2017-12-15T08:51:56.456Z,98807
2017-12-15T08:54:24.349Z,98807
2017-12-15T08:56:52.248Z,98817
2017-12-15T08:59:20.448Z,98823
2017-12-15T09:01:49.083Z,98825
2017-12-15T09:04:23.104Z,98818
2017-12-15T09:06:51.087Z,98819
2017-12-15T09:09:19.799Z,98818
2017-12-15T09:11:47.752Z,98835
2017-12-15T09:14:15.724Z,98836
2017-12-15T09:16:44.104Z,98831
2017-12-15T09:19:12.024Z,98835
2017-12-15T09:21:41.446Z,98844
2017-12-15T09:24:09.443Z,98848
2017-12-15T09:26:38.080Z,98851
2017-12-15T09:29:07.488Z,98848
2017-12-15T09:31:35.360Z,98846
2017-12-15T09:34:03.328Z,98860
2017-12-15T09:36:31.327Z,98860
2017-12-15T09:39:00.001Z,98859
2017-12-15T09:41:29.180Z,98864
2017-12-15T09:43:57.112Z,98868
2017-12-15T09:46:25.008Z,98870
2017-12-15T09:48:52.895Z,98874
2017-12-15T09:51:21.576Z,98873
2017-12-15T09:53:49.464Z,98875
2017-12-15T09:56:17.359Z,98881
2017-12-15T09:58:45.263Z,98879
2017-12-15T10:01:13.644Z,98883
2017-12-15T10:03:41.652Z,98881
2017-12-15T10:06:10.628Z,98883
2017-12-15T10:08:38.572Z,98879
2017-12-15T10:11:06.563Z,98886
2017-12-15T10:13:34.529Z,98882
2017-12-15T10:16:03.985Z,98881
2017-12-15T10:18:31.887Z,98887
2017-12-15T10:21:00.163Z,98890
2017-12-15T10:23:28.884Z,98900
2017-12-15T10:25:56.808Z,98896
2017-12-15T10:28:24.888Z,98903
2017-12-15T10:30:52.815Z,98902
2017-12-15T10:33:21.761Z,98902
2017-12-15T10:35:50.404Z,98905
2017-12-15T10:38:18.371Z,98907
2017-12-15T10:40:47.332Z,98907
2017-12-15T10:43:15.216Z,98909
2017-12-15T10:45:43.126Z,98906
2017-12-15T10:48:11.411Z,98911
2017-12-15T10:50:39.313Z,98912
2017-12-15T10:53:07.948Z,98916
2017-12-15T10:55:35.843Z,98927
2017-12-15T10:58:03.770Z,98930
2017-12-15T11:00:31.900Z,98916
2017-12-15T11:02:59.859Z,98902
2017-12-15T11:05:27.761Z,98930
2017-12-15T11:07:55.739Z,98931
2017-12-15T11:10:23.655Z,98939
2017-12-15T11:12:51.825Z,98936
2017-12-15T11:15:19.748Z,98937
2017-12-15T11:17:47.671Z,98941
2017-12-15T11:20:15.611Z,98956
2017-12-15T11:22:43.580Z,98959
2017-12-15T11:25:11.505Z,98958
2017-12-15T11:27:39.455Z,98971
2017-12-15T11:30:07.475Z,98968
2017-12-15T11:32:35.424Z,98970
2017-12-15T11:35:04.392Z,98969
2017-12-15T11:37:32.328Z,98978
2017-12-15T11:40:00.271Z,98981
2017-12-15T11:42:28.183Z,98980
2017-12-15T11:44:56.252Z,98988
2017-12-15T11:47:24.196Z,98982
2017-12-15T11:49:52.131Z,98981
2017-12-15T11:52:20.097Z,98987
2017-12-15T11:54:49.052Z,98973
2017-12-15T11:57:17.022Z,98985
2017-12-15T11:59:44.951Z,98992
2017-12-15T12:02:12.880Z,98991
2017-12-15T12:04:40.900Z,98992
2017-12-15T12:07:08.892Z,98999
2017-12-15T12:09:36.855Z,98992
2017-12-15T12:12:04.874Z,99002
2017-12-15T12:14:33.315Z,99008
2017-12-15T12:17:01.275Z,99004
2017-12-15T12:19:29.269Z,98999
2017-12-15T12:21:57.599Z,99038
2017-12-15T12:24:25.552Z,99016
2017-12-15T12:26:53.496Z,99016
2017-12-15T12:29:21.721Z,99015
2017-12-15T12:31:49.689Z,99018
2017-12-15T12:34:17.619Z,99023
2017-12-15T12:36:46.304Z,99017
2017-12-15T12:39:14.636Z,99014
2017-12-15T12:41:42.583Z,99026
2017-12-15T12:44:10.491Z,99028
2017-12-15T12:46:38.482Z,99025
2017-12-15T12:49:06.388Z,99031
2017-12-15T12:51:34.321Z,99032
2017-12-15T12:54:02.735Z,99040
2017-12-15T12:56:30.643Z,99038
2017-12-15T12:58:58.563Z,99044
2017-12-15T13:01:27.222Z,99053
2017-12-15T13:03:55.135Z,99049
2017-12-15T13:06:23.076Z,99059
2017-12-15T13:08:51.798Z,99051
2017-12-15T13:11:19.805Z,99042
2017-12-15T13:13:47.746Z,99042
2017-12-15T13:16:15.680Z,99052
2017-12-15T13:18:43.667Z,99056
2017-12-15T13:21:11.614Z,99058
2017-12-15T13:23:39.575Z,99057
2017-12-15T13:26:07.522Z,99062
2017-12-15T13:28:36.169Z,99058
2017-12-15T13:31:04.158Z,99067
2017-12-15T13:33:32.067Z,99070
2017-12-15T13:36:00.266Z,99077
2017-12-15T13:38:28.184Z,99081
2017-12-15T13:40:57.664Z,99069
2017-12-15T13:43:25.623Z,99076
2017-12-15T13:45:53.560Z,99073
2017-12-15T13:48:22.276Z,99082
2017-12-15T13:50:50.427Z,99080
2017-12-15T13:53:18.370Z,99088
2017-12-15T13:55:46.347Z,99090
2017-12-15T13:58:15.093Z,99097
2017-12-15T14:00:43.068Z,99114
2017-12-15T14:03:11.420Z,99101
2017-12-15T14:05:39.365Z,99093
2017-12-15T14:08:07.280Z,99093
2017-12-15T14:10:35.207Z,99102
2017-12-15T14:13:03.146Z,99096
2017-12-15T14:15:31.808Z,99108
2017-12-15T14:17:59.755Z,99101
2017-12-15T14:20:27.859Z,99109
2017-12-15T14:22:55.795Z,99111
2017-12-15T14:25:23.795Z,99114
2017-12-15T14:27:51.755Z,99117
2017-12-15T14:30:19.700Z,99113
2017-12-15T14:32:47.636Z,99117
2017-12-15T14:35:16.323Z,99122
2017-12-15T14:37:45.006Z,99119
2017-12-15T14:40:13.723Z,99120
2017-12-15T14:42:41.683Z,99130
2017-12-15T14:45:09.631Z,99132
2017-12-15T14:47:38.348Z,99144
2017-12-15T14:50:06.309Z,99149
2017-12-15T14:52:34.300Z,99142
2017-12-15T14:55:03.755Z,99147
2017-12-15T14:57:31.684Z,99147
2017-12-15T14:59:59.594Z,99157
2017-12-15T15:02:27.544Z,99158
2017-12-15T15:04:55.774Z,99157
2017-12-15T15:07:23.704Z,99161
2017-12-15T15:09:51.584Z,99162
2017-12-15T15:12:20.229Z,99161
2017-12-15T15:14:48.119Z,99177
2017-12-15T15:17:16.007Z,99158
2017-12-15T15:19:44.631Z,99176
2017-12-15T15:22:13.108Z,99182
2017-12-15T15:24:41.027Z,99181
2017-12-15T15:27:09.149Z,99180
2017-12-15T15:29:37.280Z,99195
2017-12-15T15:32:06.038Z,99199
2017-12-15T15:34:33.956Z,99207
2017-12-15T15:37:02.461Z,99198
2017-12-15T15:39:30.480Z,99207
2017-12-15T15:41:58.555Z,99214
2017-12-15T15:44:26.531Z,99221
2017-12-15T15:46:54.466Z,99209
2017-12-15T15:49:22.393Z,99216
2017-12-15T15:51:50.375Z,99215
2017-12-15T15:54:18.351Z,99229
2017-12-15T15:56:46.420Z,99223
2017-12-15T15:59:14.406Z,99221
2017-12-15T16:14:37.339Z,99207
2017-12-15T16:17:05.325Z,99246
2017-12-15T16:19:33.581Z,99253
2017-12-15T16:22:01.603Z,99255
2017-12-15T16:24:29.564Z,99256
2017-12-15T16:26:57.571Z,99263
2017-12-15T16:29:25.578Z,99254
2017-12-15T16:31:53.489Z,99252
2017-12-15T16:34:22.277Z,99256
2017-12-15T16:36:50.347Z,99266
2017-12-15T16:39:18.414Z,99259
2017-12-15T16:41:46.601Z,99266
2017-12-15T16:44:14.575Z,99276
2017-12-15T16:46:42.607Z,99276
2017-12-15T16:49:10.597Z,99273
2017-12-15T16:51:38.580Z,99278
2017-12-15T16:54:06.619Z,99269
2017-12-15T16:56:36.136Z,99270
2017-12-15T16:59:04.149Z,99277
2017-12-15T17:01:32.276Z,99271
2017-12-15T17:04:01.100Z,99278
2017-12-15T17:06:29.080Z,99279
2017-12-15T17:08:57.338Z,99280
2017-12-15T17:11:25.368Z,99277
2017-12-15T17:13:53.407Z,99281
2017-12-15T17:16:21.461Z,99282
2017-12-15T17:18:49.508Z,99286
2017-12-15T17:21:17.504Z,99287
2017-12-15T17:23:45.484Z,99288
2017-12-15T17:26:14.208Z,99298
2017-12-15T17:28:42.191Z,99289
2017-12-15T17:31:10.475Z,99293
2017-12-15T17:33:38.571Z,99304
2017-12-15T17:36:07.235Z,99314
2017-12-15T17:38:35.254Z,99317
2017-12-15T17:41:03.179Z,99324
2017-12-15T17:43:31.129Z,99320
2017-12-15T17:45:59.085Z,99319
2017-12-15T17:48:27.014Z,99323
2017-12-15T17:50:55.996Z,99321
2017-12-15T17:53:23.935Z,99320
2017-12-15T17:55:51.940Z,99321
2017-12-15T17:58:19.923Z,99321
2017-12-15T18:00:47.964Z,99323
2017-12-15T18:03:15.919Z,99335
2017-12-15T18:05:43.844Z,99335
2017-12-15T18:08:11.800Z,99332
2017-12-15T18:10:40.083Z,99332
2017-12-15T18:13:08.020Z,99333
2017-12-15T18:15:35.987Z,99338
2017-12-15T18:18:04.640Z,99333
2017-12-15T18:20:32.678Z,99348
2017-12-15T18:23:00.620Z,99337
2017-12-15T18:25:29.427Z,99334
2017-12-15T18:27:57.447Z,99342
2017-12-15T18:30:25.820Z,99350
2017-12-15T18:32:53.779Z,99356
2017-12-15T18:35:21.759Z,99358
2017-12-15T18:37:50.447Z,99357
2017-12-15T18:40:18.388Z,99016
2017-12-15T18:42:46.327Z,99367
2017-12-15T18:45:15.047Z,99362
2017-12-15T18:47:43.068Z,99348
2017-12-15T18:50:12.208Z,99353
2017-12-15T18:52:40.252Z,99364
2017-12-15T18:55:08.907Z,99361
2017-12-15T18:57:36.857Z,99357
2017-12-15T19:00:05.075Z,99358
2017-12-15T19:02:33.868Z,99362
2017-12-15T19:05:01.921Z,99363
2017-12-15T19:07:29.908Z,99365
2017-12-15T19:09:58.946Z,99363
2017-12-15T19:12:28.890Z,99370
2017-12-15T19:14:57.040Z,99359
2017-12-15T19:17:24.967Z,99374
2017-12-15T19:19:53.768Z,99381
2017-12-15T19:22:21.754Z,99386
2017-12-15T19:24:49.751Z,99386
2017-12-15T19:27:18.479Z,99382
2017-12-15T19:29:47.184Z,99390
2017-12-15T19:32:15.412Z,99386
2017-12-15T19:34:43.524Z,99391
2017-12-15T19:37:11.424Z,99390
2017-12-15T19:39:39.389Z,99391
2017-12-15T19:42:07.327Z,99391
2017-12-15T19:44:35.314Z,99392
2017-12-15T19:47:03.415Z,99399
2017-12-15T19:49:31.384Z,99400
2017-12-15T19:51:59.384Z,99406
2017-12-15T19:54:27.363Z,99416
2017-12-15T19:56:55.349Z,99424
2017-12-15T19:59:24.039Z,99424
2017-12-15T20:01:52.717Z,99420
2017-12-15T20:04:20.628Z,99420
2017-12-15T20:06:48.567Z,99416
2017-12-15T20:09:16.557Z,99420
2017-12-15T20:11:44.880Z,99421
2017-12-15T20:14:13.594Z,99425
2017-12-15T20:16:41.567Z,99420
2017-12-15T20:19:09.547Z,99427
2017-12-15T20:21:37.544Z,99421
2017-12-15T20:24:05.483Z,99418
2017-12-15T20:26:33.555Z,99421
2017-12-15T20:29:01.563Z,99419
2017-12-15T20:31:29.841Z,99416
2017-12-15T20:33:57.830Z,99427
2017-12-15T20:36:25.880Z,99423
2017-12-15T20:38:53.842Z,99431
2017-12-15T20:41:21.848Z,99434
2017-12-15T20:43:50.605Z,99438
2017-12-15T20:46:18.564Z,99460
2017-12-15T20:48:46.476Z,99440
2017-12-15T20:51:14.475Z,99441
2017-12-15T20:53:42.468Z,99445
2017-12-15T20:56:10.829Z,99451
2017-12-15T20:58:38.760Z,99449
2017-12-15T21:01:07.578Z,99452
2017-12-15T21:03:35.711Z,99443
2017-12-15T21:06:04.159Z,99453
2017-12-15T21:08:32.160Z,99439
2017-12-15T21:11:00.181Z,99458
2017-12-15T21:13:28.255Z,99447
2017-12-15T21:15:56.687Z,99447
2017-12-15T21:18:26.162Z,99448
2017-12-15T21:20:54.147Z,99447
2017-12-15T21:23:22.064Z,99454
2017-12-15T21:25:50.767Z,99455
2017-12-15T21:28:18.712Z,99458
2017-12-15T21:30:47.384Z,99450
2017-12-15T21:33:15.329Z,99460
2017-12-15T21:35:43.305Z,99462
2017-12-15T21:38:11.600Z,99466
2017-12-15T21:40:39.535Z,99452
2017-12-15T21:43:07.443Z,99459
2017-12-15T21:45:36.300Z,99453
2017-12-15T21:48:04.368Z,99453
2017-12-15T21:50:32.356Z,99460
2017-12-15T21:53:00.320Z,99456
2017-12-15T21:55:28.387Z,99458
2017-12-15T21:57:56.472Z,99461
2017-12-15T22:00:24.542Z,99473
2017-12-15T22:02:52.952Z,99477
2017-12-15T22:05:20.891Z,99476
2017-12-15T22:07:48.881Z,99479
2017-12-15T22:10:17.635Z,99475
2017-12-15T22:12:45.680Z,99481
2017-12-15T22:15:13.687Z,99480
2017-12-15T22:17:42.382Z,99484
2017-12-15T22:20:10.327Z,99481
2017-12-15T22:22:38.288Z,99485
2017-12-15T22:25:06.307Z,99485
2017-12-15T22:27:35.000Z,99483
2017-12-15T22:30:03.748Z,99483
2017-12-15T22:32:31.636Z,99482
2017-12-15T22:34:59.580Z,99477
2017-12-15T22:37:27.496Z,99481
2017-12-15T22:39:56.608Z,99483
2017-12-15T22:42:24.555Z,99473
2017-12-15T22:44:53.212Z,99487
2017-12-15T22:47:21.145Z,99476
2017-12-15T22:49:49.147Z,99483
2017-12-15T22:52:17.107Z,99485
2017-12-15T22:54:45.043Z,99480
2017-12-15T22:57:12.948Z,99486
2017-12-15T22:59:40.863Z,99490
2017-12-15T23:02:09.112Z,99483
2017-12-15T23:04:37.036Z,99482
2017-12-15T23:07:04.971Z,99481
2017-12-15T23:09:33.625Z,99480
2017-12-15T23:12:01.707Z,99486
2017-12-15T23:14:29.861Z,99486
2017-12-15T23:16:57.800Z,99491
2017-12-15T23:19:25.687Z,99484
2017-12-15T23:21:53.676Z,99490
2017-12-15T23:24:23.152Z,99484
2017-12-15T23:26:51.364Z,99489
2017-12-15T23:29:19.308Z,99486
2017-12-15T23:31:47.281Z,99494
2017-12-15T23:34:15.252Z,99493
2017-12-15T23:36:43.212Z,99491
2017-12-15T23:39:11.131Z,99491
2017-12-15T23:41:39.791Z,99488
2017-12-15T23:44:08.100Z,99506
2017-12-15T23:46:36.820Z,99502
2017-12-15T23:49:04.816Z,99504
2017-12-15T23:51:32.800Z,99507
2017-12-15T23:54:01.508Z,99499
2017-12-15T23:57:03.806Z,99504
2017-12-15T23:59:32.491Z,99500
